Time;durP1;ratioP1;P1;durP2;ratioP2;P2;SDS_P1;SDS_P2;PMS_P1;PMS_P2;Temp;Humidity;BMP_temperature;BMP_pressure;BME280_temperature;BME280_humidity;BME280_pressure;Samples;Min_cycle;Max_cycle;Signal;HPM_P1;HPM_P2
2023/01/17 00:00:33;;;;;;;2.03;1.15;;;;;;;;;;5125844;28;20042;-86
2023/01/17 00:02:59;;;;;;;2.50;1.25;;;;;;;;;;5081923;28;20038;-87
2023/01/17 00:10:57;;;;;;;2.38;1.38;;;;;;;;;;5115206;28;19915;-87
2023/01/17 00:13:22;;;;;;;2.17;1.38;;;;;;;;;;5097682;28;20035;-87
2023/01/17 00:15:48;;;;;;;3.45;1.40;;;;;;;;;;5116259;28;20074;-86
2023/01/17 00:18:13;;;;;;;2.53;1.40;;;;;;;;;;5097969;28;20055;-88
2023/01/17 00:26:12;;;;;;;2.25;1.25;;;;;;;;;;5116169;28;20043;-86
2023/01/17 01:35:34;;;;;;;;;;;;;;;;;;5095198;28;20126;-83
2023/01/17 01:38:01;;;;;;;5.63;3.00;;;;;;;;;;5114011;28;19912;-87
2023/01/17 01:40:26;;;;;;;5.07;2.47;;;;;;;;;;5114027;28;20072;-85
2023/01/17 01:42:54;;;;;;;4.53;1.98;;;;;;;;;;5095077;28;20118;-85
2023/01/17 01:45:24;;;;;;;2.70;1.40;;;;;;;;;;5113279;28;20036;-88
2023/01/17 01:48:02;;;;;;;2.47;1.50;;;;;;;;;;5113393;28;20140;-84
2023/01/17 01:50:31;;;;;;;3.53;1.48;;;;;;;;;;5113841;28;20039;-85
2023/01/17 01:53:00;;;;;;;3.55;1.30;;;;;;;;;;5095239;28;20054;-85
2023/01/17 01:55:31;;;;;;;1.95;1.20;;;;;;;;;;5095087;28;20070;-85
2023/01/17 01:58:08;;;;;;;2.08;1.23;;;;;;;;;;5095103;28;20039;-85
2023/01/17 02:00:36;;;;;;;4.30;1.50;;;;;;;;;;5113245;28;20035;-87
2023/01/17 02:03:06;;;;;;;4.25;1.27;;;;;;;;;;5112912;28;20403;-84
2023/01/17 02:05:34;;;;;;;2.17;1.30;;;;;;;;;;5122380;28;20053;-85
2023/01/17 02:08:14;;;;;;;2.83;1.25;;;;;;;;;;5095083;28;20456;-86
2023/01/17 02:10:40;;;;;;;2.00;1.40;;;;;;;;;;5094968;28;20126;-85
2023/01/17 02:13:08;;;;;;;2.55;1.30;;;;;;;;;;5113067;28;20135;-85
2023/01/17 02:15:58;;;;;;;2.17;1.30;;;;;;;;;;5100564;28;20047;-86
2023/01/17 02:18:42;;;;;;;3.13;1.48;;;;;;;;;;5117339;28;20509;-86
2023/01/17 02:21:24;;;;;;;3.38;1.30;;;;;;;;;;5116742;28;20043;-86
2023/01/17 02:24:08;;;;;;;1.98;1.27;;;;;;;;;;5116312;28;20042;-85
2023/01/17 02:27:00;;;;;;;2.30;1.27;;;;;;;;;;5098035;28;20039;-86
2023/01/17 02:29:47;;;;;;;2.13;1.20;;;;;;;;;;5111930;28;20057;-85
2023/01/17 02:32:50;;;;;;;2.28;1.38;;;;;;;;;;5125429;28;20388;-86
2023/01/17 02:35:57;;;;;;;3.88;1.50;;;;;;;;;;5079463;28;20038;-86
2023/01/17 02:38:30;;;;;;;1.90;1.13;;;;;;;;;;5096069;28;20051;-86
2023/01/17 02:41:20;;;;;;;2.17;1.33;;;;;;;;;;5096278;28;20051;-86
2023/01/17 02:43:49;;;;;;;2.38;1.30;;;;;;;;;;5096848;28;20039;-86
2023/01/17 02:46:14;;;;;;;2.10;1.10;;;;;;;;;;5100266;28;20070;-85
2023/01/17 02:48:40;;;;;;;1.80;1.27;;;;;;;;;;5082737;28;20038;-85
2023/01/17 02:51:20;;;;;;;1.83;1.10;;;;;;;;;;5099885;28;20030;-86
2023/01/17 02:53:58;;;;;;;3.42;1.10;;;;;;;;;;5099757;28;20480;-86
2023/01/17 02:56:54;;;;;;;2.50;1.20;;;;;;;;;;5082911;28;20038;-86
2023/01/17 02:59:31;;;;;;;2.45;1.30;;;;;;;;;;5117282;28;20039;-87
2023/01/17 03:02:09;;;;;;;1.58;1.23;;;;;;;;;;5116887;28;20120;-86
2023/01/17 03:04:59;;;;;;;1.83;1.02;;;;;;;;;;5116643;28;20036;-86
2023/01/17 03:07:26;;;;;;;2.35;1.10;;;;;;;;;;5117367;28;20044;-85
2023/01/17 03:09:58;;;;;;;2.10;1.08;;;;;;;;;;5126112;28;20475;-88
2023/01/17 03:12:27;;;;;;;2.15;1.20;;;;;;;;;;5099595;28;20471;-86
2023/01/17 03:14:52;;;;;;;2.38;1.30;;;;;;;;;;5118298;28;20027;-89
2023/01/17 03:17:18;;;;;;;2.40;1.20;;;;;;;;;;5118481;28;20107;-88
2023/01/17 03:19:43;;;;;;;2.30;1.40;;;;;;;;;;5100456;28;20475;-86
2023/01/17 03:22:09;;;;;;;1.90;1.30;;;;;;;;;;5099977;28;20028;-86
2023/01/17 03:24:34;;;;;;;2.33;1.23;;;;;;;;;;5117925;28;20074;-88
2023/01/17 03:26:59;;;;;;;2.25;1.30;;;;;;;;;;5097846;28;20035;-86
2023/01/17 03:29:25;;;;;;;2.17;1.30;;;;;;;;;;5097500;28;20028;-86
2023/01/17 03:31:50;;;;;;;2.33;1.33;;;;;;;;;;5115564;28;20058;-87
2023/01/17 03:34:16;;;;;;;3.45;1.40;;;;;;;;;;5097233;28;20045;-86
2023/01/17 03:36:41;;;;;;;2.95;1.48;;;;;;;;;;5097197;28;20487;-86
2023/01/17 03:39:07;;;;;;;4.28;1.20;;;;;;;;;;5115358;28;20404;-87
2023/01/17 03:41:32;;;;;;;2.53;1.50;;;;;;;;;;5115200;28;20070;-86
2023/01/17 03:43:58;;;;;;;3.75;1.40;;;;;;;;;;5096562;28;20047;-85
2023/01/17 03:46:26;;;;;;;2.10;1.20;;;;;;;;;;5114771;28;20129;-86
2023/01/17 03:48:52;;;;;;;1.90;1.00;;;;;;;;;;5101082;28;20099;-84
2023/01/17 03:51:17;;;;;;;2.22;1.30;;;;;;;;;;5105047;28;20031;-87
2023/01/17 03:53:45;;;;;;;1.52;1.17;;;;;;;;;;5116261;28;20059;-86
2023/01/17 03:56:12;;;;;;;2.03;1.38;;;;;;;;;;5114848;28;20027;-87
2023/01/17 03:58:39;;;;;;;3.22;1.63;;;;;;;;;;5115734;28;20110;-87
2023/01/17 04:01:05;;;;;;;2.20;1.30;;;;;;;;;;5097084;28;20476;-87
2023/01/17 04:03:30;;;;;;;2.47;1.30;;;;;;;;;;5114932;28;20028;-86
2023/01/17 04:05:56;;;;;;;1.92;1.30;;;;;;;;;;5115066;28;20430;-84
2023/01/17 04:08:21;;;;;;;2.78;1.63;;;;;;;;;;5096623;28;20073;-86
2023/01/17 04:10:47;;;;;;;2.70;1.42;;;;;;;;;;5097178;28;20443;-84
2023/01/17 04:15:49;;;;;;;4.65;1.20;;;;;;;;;;5113859;28;20055;-82
2023/01/17 04:18:16;;;;;;;2.47;1.30;;;;;;;;;;5099853;28;20039;-82
2023/01/17 04:20:42;;;;;;;1.52;1.10;;;;;;;;;;5118057;28;20148;-81
2023/01/17 04:23:07;;;;;;;3.10;1.20;;;;;;;;;;5118407;28;20051;-81
2023/01/17 04:25:33;;;;;;;4.28;1.30;;;;;;;;;;5098875;28;20562;-81
2023/01/17 04:28:00;;;;;;;2.20;1.25;;;;;;;;;;5117539;28;20031;-82
2023/01/17 04:30:26;;;;;;;4.78;1.95;;;;;;;;;;5099240;28;20031;-81
2023/01/17 04:32:52;;;;;;;5.88;2.35;;;;;;;;;;5116628;28;20055;-81
2023/01/17 04:35:17;;;;;;;5.90;2.20;;;;;;;;;;5099500;28;20035;-81
2023/01/17 04:37:43;;;;;;;6.43;2.38;;;;;;;;;;5117760;28;20037;-81
2023/01/17 04:40:09;;;;;;;7.20;2.70;;;;;;;;;;5099872;28;20042;-82
2023/01/17 04:42:35;;;;;;;4.75;2.45;;;;;;;;;;5117372;28;20110;-82
2023/01/17 04:45:00;;;;;;;3.00;1.50;;;;;;;;;;5116986;28;20459;-83
2023/01/17 04:47:26;;;;;;;3.17;1.60;;;;;;;;;;5116747;28;20032;-81
2023/01/17 04:49:52;;;;;;;2.83;1.40;;;;;;;;;;5117529;28;20031;-81
2023/01/17 04:52:19;;;;;;;10.40;5.72;;;;;;;;;;5117334;28;20039;-81
2023/01/17 04:54:48;;;;;;;9.90;4.88;;;;;;;;;;5117484;28;20028;-81
2023/01/17 04:57:15;;;;;;;13.20;6.30;;;;;;;;;;5117806;28;20035;-82
2023/01/17 04:59:41;;;;;;;18.13;8.50;;;;;;;;;;5117509;28;20487;-82
2023/01/17 05:02:07;;;;;;;8.35;4.20;;;;;;;;;;5117372;28;20470;-82
2023/01/17 05:04:32;;;;;;;5.95;1.70;;;;;;;;;;5116440;28;20082;-82
2023/01/17 05:06:58;;;;;;;6.72;3.35;;;;;;;;;;5116177;28;20039;-82
2023/01/17 05:09:23;;;;;;;6.22;3.10;;;;;;;;;;5117183;28;20031;-81
2023/01/17 05:11:49;;;;;;;12.75;6.93;;;;;;;;;;5117426;28;20440;-82
2023/01/17 05:14:15;;;;;;;10.48;5.75;;;;;;;;;;5098307;28;20035;-82
2023/01/17 05:16:40;;;;;;;8.63;4.72;;;;;;;;;;5098470;28;20059;-83
2023/01/17 05:19:05;;;;;;;6.43;3.70;;;;;;;;;;5099183;28;20032;-82
2023/01/17 05:21:31;;;;;;;4.72;1.88;;;;;;;;;;5116569;28;20088;-82
2023/01/17 05:23:56;;;;;;;4.15;2.40;;;;;;;;;;5116507;28;20062;-82
2023/01/17 05:26:22;;;;;;;6.38;2.83;;;;;;;;;;5116997;28;20080;-82
2023/01/17 05:28:49;;;;;;;5.03;2.00;;;;;;;;;;5116348;28;20185;-81
2023/01/17 05:31:14;;;;;;;4.13;1.60;;;;;;;;;;5098499;28;20126;-82
2023/01/17 05:33:40;;;;;;;2.70;1.60;;;;;;;;;;5116118;28;20050;-81
2023/01/17 05:36:06;;;;;;;2.70;1.30;;;;;;;;;;5115895;28;20496;-82
2023/01/17 05:38:31;;;;;;;2.75;1.30;;;;;;;;;;5116244;28;20035;-82
2023/01/17 05:41:00;;;;;;;3.13;1.90;;;;;;;;;;5116389;28;20039;-83
2023/01/17 05:43:27;;;;;;;5.55;2.15;;;;;;;;;;5114677;28;20039;-81
2023/01/17 05:45:52;;;;;;;3.22;1.60;;;;;;;;;;5096626;28;20488;-81
2023/01/17 05:48:18;;;;;;;2.10;1.35;;;;;;;;;;5114135;28;20092;-81
2023/01/17 05:50:43;;;;;;;1.90;1.25;;;;;;;;;;5115255;28;20088;-81
2023/01/17 05:53:12;;;;;;;1.88;1.45;;;;;;;;;;5115647;28;20031;-81
2023/01/17 05:55:38;;;;;;;5.05;2.15;;;;;;;;;;5115417;28;20641;-81
2023/01/17 05:58:04;;;;;;;3.53;1.83;;;;;;;;;;5115307;28;20640;-81
2023/01/17 06:00:30;;;;;;;3.63;1.73;;;;;;;;;;5097227;28;20131;-81
2023/01/17 06:02:57;;;;;;;2.47;1.48;;;;;;;;;;5115714;28;20051;-82
2023/01/17 06:05:24;;;;;;;3.38;1.60;;;;;;;;;;5115187;28;20038;-82
2023/01/17 06:07:49;;;;;;;2.17;1.20;;;;;;;;;;5115824;28;20475;-82
2023/01/17 06:10:19;;;;;;;2.40;1.38;;;;;;;;;;5080610;28;20039;-82
2023/01/17 06:12:45;;;;;;;2.22;1.30;;;;;;;;;;5115199;28;20032;-82
2023/01/17 06:15:12;;;;;;;2.20;1.40;;;;;;;;;;5114474;28;20027;-81
2023/01/17 06:17:38;;;;;;;3.05;1.45;;;;;;;;;;5115084;28;20042;-81
2023/01/17 06:20:05;;;;;;;2.90;1.40;;;;;;;;;;5099630;28;20127;-82
2023/01/17 06:22:32;;;;;;;2.05;1.20;;;;;;;;;;5120037;28;20384;-82
2023/01/17 06:24:57;;;;;;;2.08;1.30;;;;;;;;;;5101159;28;20545;-81
2023/01/17 06:27:23;;;;;;;2.78;1.30;;;;;;;;;;5119465;28;20024;-82
2023/01/17 06:29:49;;;;;;;3.58;2.10;;;;;;;;;;5119674;28;20406;-81
2023/01/17 06:32:14;;;;;;;2.42;1.65;;;;;;;;;;5119879;28;20042;-81
2023/01/17 06:34:40;;;;;;;3.58;2.13;;;;;;;;;;5118014;28;20487;-80
2023/01/17 06:37:06;;;;;;;3.92;2.20;;;;;;;;;;5099949;28;20026;-81
2023/01/17 06:39:32;;;;;;;4.07;2.40;;;;;;;;;;5100173;28;20097;-81
2023/01/17 06:41:57;;;;;;;4.63;2.20;;;;;;;;;;5118621;28;20043;-82
2023/01/17 06:44:25;;;;;;;4.00;2.03;;;;;;;;;;5117729;28;20027;-81
2023/01/17 06:46:51;;;;;;;10.18;5.57;;;;;;;;;;5118931;28;20035;-82
2023/01/17 06:49:17;;;;;;;8.35;5.10;;;;;;;;;;5119674;28;20027;-82
2023/01/17 06:51:42;;;;;;;5.55;2.90;;;;;;;;;;5120003;28;20061;-82
2023/01/17 06:54:08;;;;;;;4.78;2.30;;;;;;;;;;5119710;28;20035;-81
2023/01/17 06:56:34;;;;;;;4.20;2.60;;;;;;;;;;5086103;28;20036;-81
2023/01/17 06:59:00;;;;;;;4.80;2.60;;;;;;;;;;5100297;28;20058;-82
2023/01/17 07:01:25;;;;;;;4.47;2.60;;;;;;;;;;5099819;28;20408;-81
2023/01/17 07:03:51;;;;;;;4.25;2.50;;;;;;;;;;5082912;28;20036;-81
2023/01/17 07:06:17;;;;;;;4.60;2.30;;;;;;;;;;5098713;28;20043;-80
2023/01/17 07:08:43;;;;;;;4.57;2.60;;;;;;;;;;5099661;28;20039;-81
2023/01/17 07:11:08;;;;;;;6.00;2.67;;;;;;;;;;5098649;28;20392;-81
2023/01/17 07:13:36;;;;;;;4.22;2.58;;;;;;;;;;5098776;28;20089;-80
2023/01/17 07:16:03;;;;;;;4.43;2.40;;;;;;;;;;5099042;28;20051;-80
2023/01/17 07:18:29;;;;;;;4.07;2.33;;;;;;;;;;5099156;28;20067;-81
2023/01/17 07:20:54;;;;;;;5.18;2.60;;;;;;;;;;5098854;28;20032;-81
2023/01/17 07:23:21;;;;;;;7.80;3.42;;;;;;;;;;5098696;28;20040;-83
2023/01/17 07:25:51;;;;;;;5.60;2.88;;;;;;;;;;5102426;28;20028;-81
2023/01/17 07:28:16;;;;;;;5.97;2.80;;;;;;;;;;5108360;28;20032;-81
2023/01/17 07:30:42;;;;;;;8.60;4.22;;;;;;;;;;5116952;28;20035;-80
2023/01/17 07:33:08;;;;;;;8.52;4.32;;;;;;;;;;5100077;28;20035;-82
2023/01/17 07:35:34;;;;;;;17.20;6.88;;;;;;;;;;5118465;28;20057;-81
2023/01/17 07:38:00;;;;;;;17.20;6.75;;;;;;;;;;5118597;28;20027;-81
2023/01/17 07:40:26;;;;;;;18.52;5.82;;;;;;;;;;5118189;28;20043;-82
2023/01/17 07:42:51;;;;;;;13.32;6.18;;;;;;;;;;5113749;28;20036;-81
2023/01/17 07:45:17;;;;;;;7.93;3.70;;;;;;;;;;5111862;28;20139;-82
2023/01/17 07:47:43;;;;;;;7.15;3.22;;;;;;;;;;5118083;28;20042;-84
2023/01/17 07:50:09;;;;;;;7.97;3.75;;;;;;;;;;5118524;28;20031;-81
2023/01/17 07:52:35;;;;;;;8.73;3.83;;;;;;;;;;5117355;28;20034;-81
2023/01/17 07:55:00;;;;;;;14.95;7.10;;;;;;;;;;5117930;28;20023;-84
2023/01/17 07:57:26;;;;;;;10.75;5.28;;;;;;;;;;5099063;28;20032;-81
2023/01/17 07:59:51;;;;;;;6.45;3.28;;;;;;;;;;5118225;28;20045;-81
2023/01/17 08:02:19;;;;;;;7.13;3.35;;;;;;;;;;5098185;28;20081;-81
2023/01/17 08:04:45;;;;;;;6.88;3.03;;;;;;;;;;5095993;28;20040;-81
2023/01/17 08:07:12;;;;;;;9.52;3.83;;;;;;;;;;5097398;28;20043;-81
2023/01/17 08:09:38;;;;;;;14.75;5.43;;;;;;;;;;5097379;28;20051;-81
2023/01/17 08:12:04;;;;;;;18.52;7.28;;;;;;;;;;5096458;28;20092;-82
2023/01/17 08:14:29;;;;;;;16.23;8.20;;;;;;;;;;5078670;28;20521;-81
2023/01/17 08:17:05;;;;;;;18.52;7.40;;;;;;;;;;5115417;28;20538;-82
2023/01/17 08:19:30;;;;;;;10.73;6.00;;;;;;;;;;5117391;28;20069;-81
2023/01/17 08:21:56;;;;;;;15.35;6.88;;;;;;;;;;5116975;28;20039;-81
2023/01/17 08:24:21;;;;;;;13.73;6.13;;;;;;;;;;5116233;28;20483;-82
2023/01/17 08:26:46;;;;;;;19.40;6.28;;;;;;;;;;5097788;28;20040;-82
2023/01/17 08:29:13;;;;;;;12.18;5.97;;;;;;;;;;5099562;28;20039;-81
2023/01/17 08:31:39;;;;;;;11.73;5.07;;;;;;;;;;5117641;28;20024;-81
2023/01/17 08:34:04;;;;;;;9.05;4.80;;;;;;;;;;5117059;28;20701;-83
2023/01/17 08:36:30;;;;;;;6.57;3.55;;;;;;;;;;5119450;28;20088;-82
2023/01/17 08:38:56;;;;;;;5.70;2.90;;;;;;;;;;5118411;28;20031;-82
2023/01/17 08:41:22;;;;;;;4.68;2.70;;;;;;;;;;5098444;28;20484;-83
2023/01/17 08:43:49;;;;;;;5.55;2.35;;;;;;;;;;5116901;28;20031;-81
2023/01/17 08:46:16;;;;;;;3.83;2.13;;;;;;;;;;5116742;28;20043;-82
2023/01/17 08:48:43;;;;;;;6.45;2.45;;;;;;;;;;5116702;28;20100;-81
2023/01/17 08:51:09;;;;;;;4.00;2.40;;;;;;;;;;5082645;28;20134;-81
2023/01/17 08:53:35;;;;;;;5.13;2.38;;;;;;;;;;5118400;28;20491;-81
2023/01/17 08:56:02;;;;;;;5.10;2.83;;;;;;;;;;5118007;28;20041;-82
2023/01/17 08:58:29;;;;;;;5.13;2.90;;;;;;;;;;5117786;28;20023;-83
2023/01/17 09:00:59;;;;;;;4.13;2.33;;;;;;;;;;5117775;28;20040;-81
2023/01/17 09:03:25;;;;;;;4.72;2.40;;;;;;;;;;5117480;28;20093;-83
2023/01/17 09:06:05;;;;;;;5.20;2.25;;;;;;;;;;5117466;28;20496;-82
2023/01/17 09:08:32;;;;;;;3.90;1.92;;;;;;;;;;5100564;28;20039;-82
2023/01/17 09:10:57;;;;;;;4.53;2.10;;;;;;;;;;5118907;28;20038;-82
2023/01/17 09:13:23;;;;;;;12.88;5.57;;;;;;;;;;5118811;28;20110;-81
2023/01/17 09:15:48;;;;;;;11.80;4.90;;;;;;;;;;5104367;28;20047;-82
2023/01/17 09:18:14;;;;;;;5.30;2.65;;;;;;;;;;5095975;28;20029;-82
2023/01/17 09:20:39;;;;;;;5.18;2.22;;;;;;;;;;5077458;28;20035;-82
2023/01/17 09:23:05;;;;;;;3.67;2.15;;;;;;;;;;5096398;28;20040;-81
2023/01/17 09:25:30;;;;;;;3.33;2.00;;;;;;;;;;5096889;28;20059;-83
2023/01/17 09:27:56;;;;;;;3.28;1.92;;;;;;;;;;5079789;28;20424;-82
2023/01/17 09:30:22;;;;;;;3.70;2.13;;;;;;;;;;5096474;28;20128;-84
2023/01/17 09:32:52;;;;;;;4.40;2.47;;;;;;;;;;5096806;28;20036;-83
2023/01/17 09:35:18;;;;;;;1.63;1.10;;;;;;;;;;5098558;28;20078;-83
2023/01/17 09:37:43;;;;;;;2.13;1.25;;;;;;;;;;5080044;28;20039;-83
2023/01/17 09:40:22;;;;;;;4.82;1.30;;;;;;;;;;5096275;28;20036;-83
2023/01/17 09:42:52;;;;;;;3.58;1.25;;;;;;;;;;5096592;28;20040;-83
2023/01/17 09:45:19;;;;;;;2.90;1.60;;;;;;;;;;5095474;28;20084;-82
2023/01/17 09:47:51;;;;;;;5.78;2.20;;;;;;;;;;5096346;28;20036;-82
2023/01/17 09:50:25;;;;;;;3.60;2.35;;;;;;;;;;5096600;28;20119;-86
2023/01/17 09:53:04;;;;;;;1.88;1.30;;;;;;;;;;5095863;28;20043;-82
2023/01/17 09:56:02;;;;;;;4.28;2.00;;;;;;;;;;5096962;28;20028;-84
2023/01/17 09:58:59;;;;;;;7.22;1.60;;;;;;;;;;5080831;28;20135;-81
2023/01/17 10:01:46;;;;;;;2.65;1.40;;;;;;;;;;5079786;28;20040;-82
2023/01/17 10:04:27;;;;;;;6.43;1.80;;;;;;;;;;5097109;28;20035;-81
2023/01/17 10:07:10;;;;;;;2.78;1.58;;;;;;;;;;5097298;28;20082;-82
2023/01/17 10:09:58;;;;;;;3.55;1.70;;;;;;;;;;5097542;28;20192;-81
2023/01/17 10:12:49;;;;;;;20.63;8.40;;;;;;;;;;5097202;28;20667;-81
2023/01/17 10:15:41;;;;;;;9.43;4.38;;;;;;;;;;5107560;23;20044;-88
2023/01/17 10:18:24;;;;;;;14.02;6.10;;;;;;;;;;5125303;28;20035;-88
2023/01/17 10:21:16;;;;;;;7.63;3.67;;;;;;;;;;5114389;28;20067;-88
2023/01/17 10:24:12;;;;;;;19.63;7.03;;;;;;;;;;5079682;28;20109;-88
2023/01/17 10:26:38;;;;;;;7.22;3.65;;;;;;;;;;5075229;28;20035;-88
2023/01/17 10:29:11;;;;;;;3.78;2.10;;;;;;;;;;5092775;28;20404;-88
2023/01/17 10:31:47;;;;;;;4.70;1.77;;;;;;;;;;5073941;28;20036;-84
2023/01/17 10:34:18;;;;;;;3.20;1.60;;;;;;;;;;5085291;28;20040;-88
2023/01/17 10:36:49;;;;;;;3.45;1.38;;;;;;;;;;5094196;28;20032;-88
2023/01/17 10:39:24;;;;;;;3.40;1.27;;;;;;;;;;5094222;28;20044;-88
2023/01/17 10:41:54;;;;;;;2.33;1.33;;;;;;;;;;5094418;28;20067;-87
2023/01/17 10:44:38;;;;;;;3.15;1.08;;;;;;;;;;5093995;28;20496;-88
2023/01/17 10:47:10;;;;;;;2.95;1.20;;;;;;;;;;5093336;28;20151;-87
2023/01/17 10:49:45;;;;;;;1.75;0.90;;;;;;;;;;5076056;28;20040;-89
2023/01/17 10:52:38;;;;;;;5.18;1.00;;;;;;;;;;5094124;28;20047;-89
2023/01/17 10:55:53;;;;;;;2.42;0.80;;;;;;;;;;5094419;28;20024;-87
2023/01/17 10:58:18;;;;;;;;;;;;;;;;;;5051891;28;20040;-86
2023/01/17 11:00:49;;;;;;;3.53;1.10;;;;;;;;;;5097073;28;19933;-86
2023/01/17 11:03:19;;;;;;;1.63;0.82;;;;;;;;;;5095613;28;20077;-87
2023/01/17 11:05:45;;;;;;;3.22;1.10;;;;;;;;;;5096627;28;20043;-89
2023/01/17 11:08:13;;;;;;;1.40;0.80;;;;;;;;;;5098917;28;20040;-89
2023/01/17 11:10:44;;;;;;;1.80;0.93;;;;;;;;;;5099122;28;20032;-88
2023/01/17 11:13:34;;;;;;;4.35;0.90;;;;;;;;;;5080016;28;20038;-88
2023/01/17 11:16:05;;;;;;;2.05;1.00;;;;;;;;;;5098142;28;20407;-89
2023/01/17 11:18:33;;;;;;;3.88;1.40;;;;;;;;;;5080065;28;20039;-86
2023/01/17 11:21:17;;;;;;;1.88;0.82;;;;;;;;;;5084390;28;20173;-87
2023/01/17 11:23:44;;;;;;;;;;;;;;;;;;5068354;28;20035;-85
2023/01/17 11:26:19;;;;;;;2.75;0.88;;;;;;;;;;5097665;28;20287;-87
2023/01/17 11:28:45;;;;;;;1.92;1.00;;;;;;;;;;5096279;28;20111;-86
2023/01/17 11:31:15;;;;;;;1.55;1.00;;;;;;;;;;5096121;28;20541;-86
2023/01/17 11:33:54;;;;;;;2.60;1.38;;;;;;;;;;5104761;28;20024;-87
2023/01/17 11:36:29;;;;;;;3.28;1.60;;;;;;;;;;5079778;28;20067;-86
2023/01/17 11:38:58;;;;;;;2.80;1.38;;;;;;;;;;5085770;28;20150;-88
2023/01/17 11:41:26;;;;;;;6.63;1.60;;;;;;;;;;5096509;28;20089;-88
2023/01/17 11:43:57;;;;;;;4.00;1.40;;;;;;;;;;5096005;28;20028;-88
2023/01/17 11:46:23;;;;;;;4.20;1.65;;;;;;;;;;5096743;28;20547;-88
2023/01/17 11:48:54;;;;;;;3.00;1.55;;;;;;;;;;5078442;28;20059;-89
2023/01/17 11:51:24;;;;;;;3.08;1.55;;;;;;;;;;5078773;28;20024;-88
2023/01/17 11:53:51;;;;;;;2.67;1.50;;;;;;;;;;5078912;28;20040;-87
2023/01/17 11:56:17;;;;;;;3.63;1.80;;;;;;;;;;5096939;28;20031;-89
2023/01/17 11:58:44;;;;;;;6.35;1.50;;;;;;;;;;5096729;28;20115;-85
2023/01/17 12:01:35;;;;;;;5.65;1.70;;;;;;;;;;5078270;28;20436;-87
2023/01/17 12:04:01;;;;;;;4.10;1.67;;;;;;;;;;5096229;28;20028;-88
2023/01/17 12:06:44;;;;;;;3.67;1.60;;;;;;;;;;5096887;28;20040;-83
2023/01/17 12:09:13;;;;;;;2.88;1.50;;;;;;;;;;5098174;28;20031;-86
2023/01/17 12:14:57;;;;;;;6.78;1.98;;;;;;;;;;5078092;28;20032;-86
2023/01/17 12:17:42;;;;;;;2.42;1.30;;;;;;;;;;5096414;28;20111;-84
2023/01/17 12:20:19;;;;;;;2.85;1.33;;;;;;;;;;5062097;28;20508;-83
2023/01/17 12:22:53;;;;;;;3.83;1.50;;;;;;;;;;5096857;28;20111;-83
2023/01/17 12:25:27;;;;;;;2.90;1.30;;;;;;;;;;5097032;28;20089;-83
2023/01/17 12:28:14;;;;;;;5.45;1.27;;;;;;;;;;5097873;28;20028;-84
2023/01/17 12:31:17;;;;;;;4.32;1.20;;;;;;;;;;5098377;28;20046;-86
2023/01/17 12:33:49;;;;;;;2.05;1.00;;;;;;;;;;5078776;28;20507;-83
2023/01/17 12:36:21;;;;;;;2.35;1.17;;;;;;;;;;5079217;28;20089;-84
2023/01/17 12:38:47;;;;;;;4.43;1.20;;;;;;;;;;5096912;28;20107;-84
2023/01/17 12:41:31;;;;;;;2.53;1.20;;;;;;;;;;5105113;28;20032;-83
2023/01/17 12:43:59;;;;;;;2.05;1.00;;;;;;;;;;5094064;28;20039;-83
2023/01/17 12:46:41;;;;;;;1.27;0.90;;;;;;;;;;5075870;28;20032;-84
2023/01/17 12:49:44;;;;;;;4.75;2.08;;;;;;;;;;5078663;28;20036;-83
2023/01/17 12:52:41;;;;;;;6.78;2.60;;;;;;;;;;5097376;28;20101;-83
2023/01/17 12:55:16;;;;;;;4.47;1.95;;;;;;;;;;5096047;28;20032;-83
2023/01/17 12:57:48;;;;;;;5.28;1.90;;;;;;;;;;5081205;28;20028;-84
2023/01/17 13:00:19;;;;;;;3.90;1.65;;;;;;;;;;5096376;28;20063;-83
2023/01/17 13:02:48;;;;;;;5.30;2.20;;;;;;;;;;5096147;28;20039;-86
2023/01/17 13:05:22;;;;;;;27.02;5.72;;;;;;;;;;5077826;28;20039;-84
2023/01/17 13:08:23;;;;;;;4.13;1.60;;;;;;;;;;5077851;28;20032;-84
2023/01/17 13:11:09;;;;;;;4.35;2.60;;;;;;;;;;5077448;28;20032;-85
2023/01/17 13:13:35;;;;;;;9.30;3.38;;;;;;;;;;5077797;28;20036;-86
2023/01/17 13:16:35;;;;;;;3.90;2.15;;;;;;;;;;5076961;28;20039;-85
2023/01/17 13:19:23;;;;;;;3.53;1.95;;;;;;;;;;5022438;28;20046;-84
2023/01/17 13:21:49;;;;;;;5.28;2.72;;;;;;;;;;5094594;28;20040;-84
2023/01/17 13:24:24;;;;;;;6.03;1.83;;;;;;;;;;5095854;28;20075;-83
2023/01/17 13:26:50;;;;;;;6.45;2.67;;;;;;;;;;5077706;28;20492;-85
2023/01/17 13:29:40;;;;;;;2.35;1.40;;;;;;;;;;5093232;28;20039;-88
2023/01/17 13:32:33;;;;;;;5.63;2.10;;;;;;;;;;5094805;28;20032;-85
2023/01/17 13:35:11;;;;;;;3.47;1.77;;;;;;;;;;5059509;28;20434;-85
2023/01/17 13:37:55;;;;;;;5.95;2.13;;;;;;;;;;5094473;28;20055;-85
2023/01/17 13:40:39;;;;;;;15.23;7.80;;;;;;;;;;5084603;28;20070;-84
2023/01/17 13:43:11;;;;;;;;;;;;;;;;;;5056683;28;20047;-83
2023/01/17 13:45:37;;;;;;;7.28;3.50;;;;;;;;;;5064548;28;19928;-85
2023/01/17 13:48:13;;;;;;;16.27;5.38;;;;;;;;;;5073585;28;20028;-85
2023/01/17 13:51:01;;;;;;;5.03;3.00;;;;;;;;;;5073051;28;20059;-85
2023/01/17 13:53:33;;;;;;;11.35;5.43;;;;;;;;;;5055372;28;20033;-86
2023/01/17 13:56:17;;;;;;;13.20;6.53;;;;;;;;;;5054613;28;20537;-85
2023/01/17 13:58:57;;;;;;;7.10;2.88;;;;;;;;;;5055621;28;20032;-85
2023/01/17 14:01:22;;;;;;;2.60;1.48;;;;;;;;;;5072062;28;20044;-85
2023/01/17 14:03:47;;;;;;;4.03;1.55;;;;;;;;;;5053607;28;20037;-84
2023/01/17 14:06:34;;;;;;;3.97;1.73;;;;;;;;;;5064671;28;20029;-85
2023/01/17 14:09:24;;;;;;;14.52;6.57;;;;;;;;;;5074147;28;20170;-84
2023/01/17 14:11:56;;;;;;;23.55;12.05;;;;;;;;;;5074512;28;20127;-85
2023/01/17 14:14:43;;;;;;;23.17;12.30;;;;;;;;;;5073717;28;20024;-85
2023/01/17 14:17:29;;;;;;;12.90;5.47;;;;;;;;;;5074472;28;20082;-86
2023/01/17 14:20:17;;;;;;;4.35;2.05;;;;;;;;;;5055862;28;20036;-86
2023/01/17 14:22:52;;;;;;;6.93;3.83;;;;;;;;;;5074147;28;20075;-85
2023/01/17 14:25:29;;;;;;;6.95;2.80;;;;;;;;;;5038717;28;20488;-86
2023/01/17 14:28:06;;;;;;;5.70;2.30;;;;;;;;;;5055963;28;20052;-86
2023/01/17 14:30:32;;;;;;;6.00;3.15;;;;;;;;;;5074715;28;20044;-85
2023/01/17 14:32:57;;;;;;;6.90;3.22;;;;;;;;;;5055904;28;20082;-84
2023/01/17 14:35:26;;;;;;;10.05;5.60;;;;;;;;;;5073613;28;20025;-85
2023/01/17 14:37:53;;;;;;;9.25;5.18;;;;;;;;;;5074218;28;20025;-86
2023/01/17 14:40:25;;;;;;;8.73;4.35;;;;;;;;;;5076770;28;20410;-87
2023/01/17 14:43:09;;;;;;;12.85;6.40;;;;;;;;;;5077676;28;20035;-85
2023/01/17 14:45:36;;;;;;;6.28;2.90;;;;;;;;;;5077127;28;20093;-83
2023/01/17 14:48:05;;;;;;;4.57;2.25;;;;;;;;;;5069144;28;20036;-85
2023/01/17 14:50:38;;;;;;;4.45;1.80;;;;;;;;;;5077772;28;20032;-84
2023/01/17 14:53:11;;;;;;;5.72;2.50;;;;;;;;;;5078082;28;20028;-85
2023/01/17 14:55:58;;;;;;;4.15;2.35;;;;;;;;;;5077286;28;20051;-84
2023/01/17 14:58:26;;;;;;;16.48;8.45;;;;;;;;;;5076931;28;20178;-85
2023/01/17 15:01:21;;;;;;;4.82;1.70;;;;;;;;;;5059598;28;20178;-82
2023/01/17 15:03:54;;;;;;;6.22;2.47;;;;;;;;;;5055385;28;20119;-88
2023/01/17 15:06:21;;;;;;;2.90;1.50;;;;;;;;;;5076181;28;20036;-86
2023/01/17 15:08:47;;;;;;;4.35;1.90;;;;;;;;;;5074759;28;20040;-84
2023/01/17 15:11:21;;;;;;;5.20;1.60;;;;;;;;;;5056528;28;20043;-84
2023/01/17 15:13:48;;;;;;;;;;;;;;;;;;5058775;28;20040;-82
2023/01/17 15:16:26;;;;;;;5.00;1.90;;;;;;;;;;5057474;28;19942;-86
2023/01/17 15:18:53;;;;;;;4.38;2.20;;;;;;;;;;5040503;28;20504;-83
2023/01/17 15:21:25;;;;;;;4.03;1.50;;;;;;;;;;5095781;28;20036;-83
2023/01/17 15:24:00;;;;;;;5.25;2.00;;;;;;;;;;5085833;28;20487;-84
2023/01/17 15:26:32;;;;;;;6.65;3.35;;;;;;;;;;5059597;28;20560;-85
2023/01/17 15:29:07;;;;;;;6.93;3.95;;;;;;;;;;5077633;28;20040;-85
2023/01/17 15:31:40;;;;;;;6.72;2.75;;;;;;;;;;5077262;28;20048;-84
2023/01/17 15:34:07;;;;;;;5.88;2.20;;;;;;;;;;5075517;28;20036;-85
2023/01/17 15:36:33;;;;;;;3.58;2.05;;;;;;;;;;5075072;28;20028;-85
2023/01/17 15:39:03;;;;;;;9.13;4.47;;;;;;;;;;5093040;28;20152;-85
2023/01/17 15:41:34;;;;;;;11.40;3.50;;;;;;;;;;5077489;28;20066;-86
2023/01/17 15:44:00;;;;;;;8.23;3.90;;;;;;;;;;5095332;28;20057;-85
2023/01/17 15:46:42;;;;;;;68.68;37.33;;;;;;;;;;5095935;28;20411;-85
2023/01/17 15:49:19;;;;;;;37.92;23.48;;;;;;;;;;5095818;28;20036;-84
2023/01/17 15:51:52;;;;;;;36.25;19.30;;;;;;;;;;5104871;28;20202;-84
2023/01/17 15:54:39;;;;;;;23.33;11.95;;;;;;;;;;5079297;28;20059;-85
2023/01/17 15:57:37;;;;;;;12.52;5.90;;;;;;;;;;5097272;28;20040;-85
2023/01/17 16:00:08;;;;;;;20.70;11.55;;;;;;;;;;5079374;28;20504;-85
2023/01/17 16:02:39;;;;;;;11.82;5.53;;;;;;;;;;5078555;28;20028;-86
2023/01/17 16:05:23;;;;;;;6.18;2.67;;;;;;;;;;5078762;28;20028;-86
2023/01/17 16:08:01;;;;;;;10.43;4.10;;;;;;;;;;5097252;28;20484;-86
2023/01/17 16:10:34;;;;;;;10.35;5.38;;;;;;;;;;5078754;28;20553;-85
2023/01/17 16:13:00;;;;;;;12.90;5.32;;;;;;;;;;5078507;28;20047;-86
2023/01/17 16:15:27;;;;;;;11.52;5.68;;;;;;;;;;5105518;22;20048;-84
2023/01/17 16:17:57;;;;;;;11.48;5.75;;;;;;;;;;5098769;28;20031;-85
2023/01/17 16:20:31;;;;;;;12.63;6.38;;;;;;;;;;5116195;28;20064;-84
2023/01/17 16:22:57;;;;;;;12.48;5.82;;;;;;;;;;5097858;28;20063;-84
2023/01/17 16:25:23;;;;;;;20.35;7.28;;;;;;;;;;5115809;28;20063;-84
2023/01/17 16:27:49;;;;;;;14.77;6.95;;;;;;;;;;5084148;28;20115;-87
2023/01/17 16:30:20;;;;;;;19.75;7.00;;;;;;;;;;5093879;28;20094;-83
2023/01/17 16:32:47;;;;;;;10.38;4.68;;;;;;;;;;5094757;28;20248;-83